sensor_id;sensor_type;location;lat;lon;timestamp;temperature;humidity
67192;HTU21D;54120;53.504;49.426;2022-11-23T00:01:27;-0.88;101.83
67192;HTU21D;54120;53.504;49.426;2022-11-23T00:03:56;-0.90;102.05
67192;HTU21D;54120;53.504;49.426;2022-11-23T00:06:24;-0.88;102.22
67192;HTU21D;54120;53.504;49.426;2022-11-23T00:08:51;-0.91;102.42
67192;HTU21D;54120;53.504;49.426;2022-11-23T00:11:18;-0.90;102.44
67192;HTU21D;54120;53.504;49.426;2022-11-23T00:13:45;-0.88;102.57
67192;HTU21D;54120;53.504;49.426;2022-11-23T00:16:13;-0.88;102.54
67192;HTU21D;54120;53.504;49.426;2022-11-23T00:18:40;-0.86;102.77
67192;HTU21D;54120;53.504;49.426;2022-11-23T00:21:08;-0.85;102.92
67192;HTU21D;54120;53.504;49.426;2022-11-23T00:23:34;-0.87;102.81
67192;HTU21D;54120;53.504;49.426;2022-11-23T00:26:01;-0.84;102.80
67192;HTU21D;54120;53.504;49.426;2022-11-23T00:28:27;-0.85;103.34
67192;HTU21D;54120;53.504;49.426;2022-11-23T00:30:53;-0.86;103.36
67192;HTU21D;54120;53.504;49.426;2022-11-23T00:33:19;-0.85;103.59
67192;HTU21D;54120;53.504;49.426;2022-11-23T00:35:45;-0.83;103.61
67192;HTU21D;54120;53.504;49.426;2022-11-23T00:38:11;-0.81;103.60
67192;HTU21D;54120;53.504;49.426;2022-11-23T00:40:37;-0.81;103.69
67192;HTU21D;54120;53.504;49.426;2022-11-23T00:43:03;-0.83;103.81
67192;HTU21D;54120;53.504;49.426;2022-11-23T00:45:29;-0.82;103.87
67192;HTU21D;54120;53.504;49.426;2022-11-23T00:47:55;-0.76;104.12
67192;HTU21D;54120;53.504;49.426;2022-11-23T00:50:21;-0.77;103.55
67192;HTU21D;54120;53.504;49.426;2022-11-23T00:52:47;-0.76;103.45
67192;HTU21D;54120;53.504;49.426;2022-11-23T00:55:13;-0.76;102.85
67192;HTU21D;54120;53.504;49.426;2022-11-23T00:57:39;-0.76;103.19
67192;HTU21D;54120;53.504;49.426;2022-11-23T01:00:06;-0.73;103.62
67192;HTU21D;54120;53.504;49.426;2022-11-23T01:02:35;-0.70;103.86
67192;HTU21D;54120;53.504;49.426;2022-11-23T01:05:02;-0.68;103.86
67192;HTU21D;54120;53.504;49.426;2022-11-23T01:07:28;-0.67;103.92
67192;HTU21D;54120;53.504;49.426;2022-11-23T01:09:57;-0.67;103.68
67192;HTU21D;54120;53.504;49.426;2022-11-23T01:12:23;-0.68;103.67
67192;HTU21D;54120;53.504;49.426;2022-11-23T01:14:52;-0.67;103.76
67192;HTU21D;54120;53.504;49.426;2022-11-23T01:17:18;-0.65;103.75
67192;HTU21D;54120;53.504;49.426;2022-11-23T01:19:44;-0.64;103.69
67192;HTU21D;54120;53.504;49.426;2022-11-23T01:22:10;-0.64;103.86
67192;HTU21D;54120;53.504;49.426;2022-11-23T01:24:36;-0.62;103.89
67192;HTU21D;54120;53.504;49.426;2022-11-23T01:27:02;-0.62;103.86
67192;HTU21D;54120;53.504;49.426;2022-11-23T01:29:28;-0.60;103.96
67192;HTU21D;54120;53.504;49.426;2022-11-23T01:31:54;-0.60;104.07
67192;HTU21D;54120;53.504;49.426;2022-11-23T01:34:20;-0.58;103.98
67192;HTU21D;54120;53.504;49.426;2022-11-23T01:36:47;-0.57;104.05
67192;HTU21D;54120;53.504;49.426;2022-11-23T01:39:13;-0.58;104.05
67192;HTU21D;54120;53.504;49.426;2022-11-23T01:41:41;-0.58;104.13
67192;HTU21D;54120;53.504;49.426;2022-11-23T01:44:26;-0.56;104.30
67192;HTU21D;54120;53.504;49.426;2022-11-23T01:46:54;-0.52;104.48
67192;HTU21D;54120;53.504;49.426;2022-11-23T01:49:20;-0.53;104.24
67192;HTU21D;54120;53.504;49.426;2022-11-23T01:51:49;-0.53;104.06
67192;HTU21D;54120;53.504;49.426;2022-11-23T01:54:42;-0.50;104.25
67192;HTU21D;54120;53.504;49.426;2022-11-23T01:57:15;-0.49;104.18
67192;HTU21D;54120;53.504;49.426;2022-11-23T01:59:44;-0.47;104.13
67192;HTU21D;54120;53.504;49.426;2022-11-23T02:02:11;-0.49;104.05
67192;HTU21D;54120;53.504;49.426;2022-11-23T02:04:39;-0.46;104.24
67192;HTU21D;54120;53.504;49.426;2022-11-23T02:07:07;-0.45;104.14
67192;HTU21D;54120;53.504;49.426;2022-11-23T02:09:34;-0.43;103.94
67192;HTU21D;54120;53.504;49.426;2022-11-23T02:12:00;-0.42;103.63
67192;HTU21D;54120;53.504;49.426;2022-11-23T02:14:26;-0.43;103.94
67192;HTU21D;54120;53.504;49.426;2022-11-23T02:16:54;-0.44;103.73
67192;HTU21D;54120;53.504;49.426;2022-11-23T02:22:11;-0.44;103.46
67192;HTU21D;54120;53.504;49.426;2022-11-23T02:24:45;-0.41;103.65
67192;HTU21D;54120;53.504;49.426;2022-11-23T02:27:14;-0.42;103.91
67192;HTU21D;54120;53.504;49.426;2022-11-23T02:29:41;-0.41;104.23
67192;HTU21D;54120;53.504;49.426;2022-11-23T02:32:07;-0.39;104.44
67192;HTU21D;54120;53.504;49.426;2022-11-23T02:34:33;-0.35;104.90
67192;HTU21D;54120;53.504;49.426;2022-11-23T02:36:59;-0.38;104.91
67192;HTU21D;54120;53.504;49.426;2022-11-23T02:39:33;-0.40;105.02
67192;HTU21D;54120;53.504;49.426;2022-11-23T02:42:02;-0.37;105.16
67192;HTU21D;54120;53.504;49.426;2022-11-23T02:47:13;-0.35;105.39
67192;HTU21D;54120;53.504;49.426;2022-11-23T02:49:41;-0.32;105.50
67192;HTU21D;54120;53.504;49.426;2022-11-23T02:52:07;-0.32;105.53
67192;HTU21D;54120;53.504;49.426;2022-11-23T02:54:34;-0.29;105.64
67192;HTU21D;54120;53.504;49.426;2022-11-23T02:57:00;-0.31;105.67
67192;HTU21D;54120;53.504;49.426;2022-11-23T02:59:26;-0.28;105.74
67192;HTU21D;54120;53.504;49.426;2022-11-23T03:01:52;-0.29;105.77
67192;HTU21D;54120;53.504;49.426;2022-11-23T03:04:18;-0.28;105.79
67192;HTU21D;54120;53.504;49.426;2022-11-23T03:06:44;-0.28;105.85
67192;HTU21D;54120;53.504;49.426;2022-11-23T03:09:10;-0.31;105.87
67192;HTU21D;54120;53.504;49.426;2022-11-23T03:11:36;-0.31;105.92
67192;HTU21D;54120;53.504;49.426;2022-11-23T03:14:03;-0.29;105.94
67192;HTU21D;54120;53.504;49.426;2022-11-23T03:16:29;-0.28;105.97
67192;HTU21D;54120;53.504;49.426;2022-11-23T03:18:55;-0.26;105.99
67192;HTU21D;54120;53.504;49.426;2022-11-23T03:21:21;-0.24;106.03
67192;HTU21D;54120;53.504;49.426;2022-11-23T03:23:47;-0.22;106.07
67192;HTU21D;54120;53.504;49.426;2022-11-23T03:26:13;-0.22;106.08
67192;HTU21D;54120;53.504;49.426;2022-11-23T03:28:39;-0.21;106.10
67192;HTU21D;54120;53.504;49.426;2022-11-23T03:31:05;-0.22;106.11
67192;HTU21D;54120;53.504;49.426;2022-11-23T03:33:31;-0.19;106.15
67192;HTU21D;54120;53.504;49.426;2022-11-23T03:35:57;-0.16;106.14
67192;HTU21D;54120;53.504;49.426;2022-11-23T03:38:23;-0.14;106.17
67192;HTU21D;54120;53.504;49.426;2022-11-23T03:40:49;-0.11;106.20
67192;HTU21D;54120;53.504;49.426;2022-11-23T03:43:15;-0.09;106.21
67192;HTU21D;54120;53.504;49.426;2022-11-23T03:45:41;-0.09;106.24
67192;HTU21D;54120;53.504;49.426;2022-11-23T03:48:09;-0.07;106.27
67192;HTU21D;54120;53.504;49.426;2022-11-23T03:50:35;-0.07;106.29
67192;HTU21D;54120;53.504;49.426;2022-11-23T03:53:02;-0.06;106.30
67192;HTU21D;54120;53.504;49.426;2022-11-23T03:55:28;-0.06;106.32
67192;HTU21D;54120;53.504;49.426;2022-11-23T03:57:54;-0.08;106.34
67192;HTU21D;54120;53.504;49.426;2022-11-23T04:00:25;-0.07;106.36
67192;HTU21D;54120;53.504;49.426;2022-11-23T04:02:51;-0.06;106.37
67192;HTU21D;54120;53.504;49.426;2022-11-23T04:05:17;-0.05;106.41
67192;HTU21D;54120;53.504;49.426;2022-11-23T04:07:45;-0.00;106.44
67192;HTU21D;54120;53.504;49.426;2022-11-23T04:10:14;-0.01;106.49
67192;HTU21D;54120;53.504;49.426;2022-11-23T04:12:40;0.01;106.51
67192;HTU21D;54120;53.504;49.426;2022-11-23T04:15:07;0.02;106.53
67192;HTU21D;54120;53.504;49.426;2022-11-23T04:17:33;0.03;106.56
67192;HTU21D;54120;53.504;49.426;2022-11-23T04:19:59;0.01;106.56
67192;HTU21D;54120;53.504;49.426;2022-11-23T04:22:25;0.02;106.56
67192;HTU21D;54120;53.504;49.426;2022-11-23T04:24:51;-0.01;106.57
67192;HTU21D;54120;53.504;49.426;2022-11-23T04:27:17;0.01;106.59
67192;HTU21D;54120;53.504;49.426;2022-11-23T04:29:43;0.01;106.60
67192;HTU21D;54120;53.504;49.426;2022-11-23T04:32:09;-0.02;106.61
67192;HTU21D;54120;53.504;49.426;2022-11-23T04:34:35;-0.03;106.60
67192;HTU21D;54120;53.504;49.426;2022-11-23T04:37:01;-0.01;106.62
67192;HTU21D;54120;53.504;49.426;2022-11-23T04:39:26;-0.03;106.62
67192;HTU21D;54120;53.504;49.426;2022-11-23T04:41:52;-0.02;106.60
67192;HTU21D;54120;53.504;49.426;2022-11-23T04:44:18;-0.03;106.60
67192;HTU21D;54120;53.504;49.426;2022-11-23T04:46:46;-0.02;106.64
67192;HTU21D;54120;53.504;49.426;2022-11-23T04:49:12;-0.02;106.64
67192;HTU21D;54120;53.504;49.426;2022-11-23T04:51:38;-0.01;106.65
67192;HTU21D;54120;53.504;49.426;2022-11-23T04:54:04;0.01;106.65
67192;HTU21D;54120;53.504;49.426;2022-11-23T04:56:30;0.02;106.72
67192;HTU21D;54120;53.504;49.426;2022-11-23T04:58:56;0.04;106.72
67192;HTU21D;54120;53.504;49.426;2022-11-23T05:01:22;0.06;106.73
67192;HTU21D;54120;53.504;49.426;2022-11-23T05:03:48;0.06;106.75
67192;HTU21D;54120;53.504;49.426;2022-11-23T05:06:14;0.07;106.77
67192;HTU21D;54120;53.504;49.426;2022-11-23T05:08:41;0.07;106.79
67192;HTU21D;54120;53.504;49.426;2022-11-23T05:11:07;0.12;106.82
67192;HTU21D;54120;53.504;49.426;2022-11-23T05:13:33;0.13;106.82
67192;HTU21D;54120;53.504;49.426;2022-11-23T05:15:59;0.15;106.85
67192;HTU21D;54120;53.504;49.426;2022-11-23T05:18:25;0.15;106.84
67192;HTU21D;54120;53.504;49.426;2022-11-23T05:20:51;0.18;106.86
67192;HTU21D;54120;53.504;49.426;2022-11-23T05:23:17;0.18;106.89
67192;HTU21D;54120;53.504;49.426;2022-11-23T05:25:43;0.18;106.91
67192;HTU21D;54120;53.504;49.426;2022-11-23T05:28:18;0.20;106.94
67192;HTU21D;54120;53.504;49.426;2022-11-23T05:30:44;0.20;106.95
67192;HTU21D;54120;53.504;49.426;2022-11-23T05:33:10;0.22;106.97
67192;HTU21D;54120;53.504;49.426;2022-11-23T05:35:37;0.22;107.01
67192;HTU21D;54120;53.504;49.426;2022-11-23T05:38:03;0.24;107.01
67192;HTU21D;54120;53.504;49.426;2022-11-23T05:40:29;0.25;107.01
67192;HTU21D;54120;53.504;49.426;2022-11-23T05:42:58;0.27;107.04
67192;HTU21D;54120;53.504;49.426;2022-11-23T05:45:25;0.25;107.04
67192;HTU21D;54120;53.504;49.426;2022-11-23T05:47:52;0.29;107.09
67192;HTU21D;54120;53.504;49.426;2022-11-23T05:50:20;0.36;107.15
67192;HTU21D;54120;53.504;49.426;2022-11-23T05:52:46;0.39;107.20
67192;HTU21D;54120;53.504;49.426;2022-11-23T05:55:13;0.39;107.22
67192;HTU21D;54120;53.504;49.426;2022-11-23T05:57:39;0.43;107.23
67192;HTU21D;54120;53.504;49.426;2022-11-23T06:00:07;0.46;107.23
67192;HTU21D;54120;53.504;49.426;2022-11-23T06:02:36;0.46;107.21
67192;HTU21D;54120;53.504;49.426;2022-11-23T06:05:02;0.47;107.22
67192;HTU21D;54120;53.504;49.426;2022-11-23T06:07:30;0.51;107.24
67192;HTU21D;54120;53.504;49.426;2022-11-23T06:09:56;0.53;107.24
67192;HTU21D;54120;53.504;49.426;2022-11-23T06:12:22;0.54;107.23
67192;HTU21D;54120;53.504;49.426;2022-11-23T06:14:48;0.57;107.25
67192;HTU21D;54120;53.504;49.426;2022-11-23T06:17:14;0.57;107.24
67192;HTU21D;54120;53.504;49.426;2022-11-23T06:19:40;0.58;107.24
67192;HTU21D;54120;53.504;49.426;2022-11-23T06:22:06;0.59;107.26
67192;HTU21D;54120;53.504;49.426;2022-11-23T06:24:33;0.64;107.27
67192;HTU21D;54120;53.504;49.426;2022-11-23T06:26:59;0.66;107.30
67192;HTU21D;54120;53.504;49.426;2022-11-23T06:29:25;0.67;107.32
67192;HTU21D;54120;53.504;49.426;2022-11-23T06:31:51;0.73;107.33
67192;HTU21D;54120;53.504;49.426;2022-11-23T06:34:17;0.72;107.33
67192;HTU21D;54120;53.504;49.426;2022-11-23T06:36:43;0.76;107.35
67192;HTU21D;54120;53.504;49.426;2022-11-23T06:39:09;0.74;107.36
67192;HTU21D;54120;53.504;49.426;2022-11-23T06:41:35;0.77;107.38
67192;HTU21D;54120;53.504;49.426;2022-11-23T06:44:01;0.77;107.39
67192;HTU21D;54120;53.504;49.426;2022-11-23T06:46:27;0.76;107.38
67192;HTU21D;54120;53.504;49.426;2022-11-23T06:48:53;0.84;107.43
67192;HTU21D;54120;53.504;49.426;2022-11-23T06:51:19;0.89;107.44
67192;HTU21D;54120;53.504;49.426;2022-11-23T06:53:45;0.92;107.46
67192;HTU21D;54120;53.504;49.426;2022-11-23T06:56:11;0.94;107.46
67192;HTU21D;54120;53.504;49.426;2022-11-23T06:58:37;0.95;107.46
67192;HTU21D;54120;53.504;49.426;2022-11-23T07:01:06;0.98;107.50
67192;HTU21D;54120;53.504;49.426;2022-11-23T07:03:33;1.03;107.52
67192;HTU21D;54120;53.504;49.426;2022-11-23T07:06:06;1.05;107.53
67192;HTU21D;54120;53.504;49.426;2022-11-23T07:08:33;1.06;107.54
67192;HTU21D;54120;53.504;49.426;2022-11-23T07:11:01;1.06;107.53
67192;HTU21D;54120;53.504;49.426;2022-11-23T07:13:27;1.06;107.53
67192;HTU21D;54120;53.504;49.426;2022-11-23T07:15:53;1.09;107.57
67192;HTU21D;54120;53.504;49.426;2022-11-23T07:18:19;1.07;107.57
67192;HTU21D;54120;53.504;49.426;2022-11-23T07:20:45;1.05;107.56
67192;HTU21D;54120;53.504;49.426;2022-11-23T07:23:11;1.08;107.56
67192;HTU21D;54120;53.504;49.426;2022-11-23T07:25:37;1.07;107.56
67192;HTU21D;54120;53.504;49.426;2022-11-23T07:28:05;1.06;107.57
67192;HTU21D;54120;53.504;49.426;2022-11-23T07:30:33;1.06;107.58
67192;HTU21D;54120;53.504;49.426;2022-11-23T07:33:05;1.11;107.60
67192;HTU21D;54120;53.504;49.426;2022-11-23T07:35:33;1.12;107.62
67192;HTU21D;54120;53.504;49.426;2022-11-23T07:38:00;1.20;107.64
67192;HTU21D;54120;53.504;49.426;2022-11-23T07:40:28;1.19;107.62
67192;HTU21D;54120;53.504;49.426;2022-11-23T07:43:02;1.22;107.66
67192;HTU21D;54120;53.504;49.426;2022-11-23T07:45:29;1.25;107.66
67192;HTU21D;54120;53.504;49.426;2022-11-23T07:48:21;1.31;107.69
67192;HTU21D;54120;53.504;49.426;2022-11-23T07:50:51;1.35;107.69
67192;HTU21D;54120;53.504;49.426;2022-11-23T07:53:18;1.43;107.72
67192;HTU21D;54120;53.504;49.426;2022-11-23T07:55:44;1.51;107.73
67192;HTU21D;54120;53.504;49.426;2022-11-23T07:58:10;1.55;107.75
67192;HTU21D;54120;53.504;49.426;2022-11-23T08:00:37;1.55;107.74
67192;HTU21D;54120;53.504;49.426;2022-11-23T08:03:03;1.54;107.75
67192;HTU21D;54120;53.504;49.426;2022-11-23T08:05:33;1.50;107.72
67192;HTU21D;54120;53.504;49.426;2022-11-23T08:08:01;1.45;107.72
67192;HTU21D;54120;53.504;49.426;2022-11-23T08:10:29;1.41;107.71
67192;HTU21D;54120;53.504;49.426;2022-11-23T08:12:59;1.36;107.72
67192;HTU21D;54120;53.504;49.426;2022-11-23T08:15:25;1.37;107.72
67192;HTU21D;54120;53.504;49.426;2022-11-23T08:17:59;1.43;107.73
67192;HTU21D;54120;53.504;49.426;2022-11-23T08:20:27;1.49;107.75
67192;HTU21D;54120;53.504;49.426;2022-11-23T08:22:53;1.45;107.74
67192;HTU21D;54120;53.504;49.426;2022-11-23T08:25:24;1.35;107.73
67192;HTU21D;54120;53.504;49.426;2022-11-23T08:27:58;1.31;107.75
67192;HTU21D;54120;53.504;49.426;2022-11-23T08:30:26;1.32;107.75
67192;HTU21D;54120;53.504;49.426;2022-11-23T08:32:52;1.32;107.75
67192;HTU21D;54120;53.504;49.426;2022-11-23T08:35:18;1.36;107.77
67192;HTU21D;54120;53.504;49.426;2022-11-23T08:37:44;1.39;107.80
67192;HTU21D;54120;53.504;49.426;2022-11-23T08:40:11;1.45;107.81
67192;HTU21D;54120;53.504;49.426;2022-11-23T08:42:37;1.53;107.84
67192;HTU21D;54120;53.504;49.426;2022-11-23T08:45:03;1.62;107.86
67192;HTU21D;54120;53.504;49.426;2022-11-23T08:47:31;1.67;107.89
67192;HTU21D;54120;53.504;49.426;2022-11-23T08:49:57;1.68;107.89
67192;HTU21D;54120;53.504;49.426;2022-11-23T08:52:23;1.73;107.89
67192;HTU21D;54120;53.504;49.426;2022-11-23T08:54:50;1.79;107.91
67192;HTU21D;54120;53.504;49.426;2022-11-23T08:57:16;1.84;107.95
67192;HTU21D;54120;53.504;49.426;2022-11-23T08:59:42;1.90;107.97
67192;HTU21D;54120;53.504;49.426;2022-11-23T09:02:12;1.96;107.98
67192;HTU21D;54120;53.504;49.426;2022-11-23T09:04:40;1.99;107.98
67192;HTU21D;54120;53.504;49.426;2022-11-23T09:07:06;2.03;108.00
67192;HTU21D;54120;53.504;49.426;2022-11-23T09:09:32;2.10;108.03
67192;HTU21D;54120;53.504;49.426;2022-11-23T09:11:58;2.12;108.01
67192;HTU21D;54120;53.504;49.426;2022-11-23T09:14:24;2.10;108.01
67192;HTU21D;54120;53.504;49.426;2022-11-23T09:16:53;2.12;108.02
67192;HTU21D;54120;53.504;49.426;2022-11-23T09:19:19;2.11;108.01
67192;HTU21D;54120;53.504;49.426;2022-11-23T09:21:45;2.09;108.01
67192;HTU21D;54120;53.504;49.426;2022-11-23T09:24:11;2.17;108.03
67192;HTU21D;54120;53.504;49.426;2022-11-23T09:26:39;2.26;108.04
67192;HTU21D;54120;53.504;49.426;2022-11-23T09:29:05;2.25;108.03
67192;HTU21D;54120;53.504;49.426;2022-11-23T09:31:35;2.23;108.01
67192;HTU21D;54120;53.504;49.426;2022-11-23T09:34:01;2.19;108.01
67192;HTU21D;54120;53.504;49.426;2022-11-23T09:36:27;2.19;108.01
67192;HTU21D;54120;53.504;49.426;2022-11-23T09:38:54;2.15;108.00
67192;HTU21D;54120;53.504;49.426;2022-11-23T09:44:23;2.10;107.99
67192;HTU21D;54120;53.504;49.426;2022-11-23T09:49:20;1.96;107.98
67192;HTU21D;54120;53.504;49.426;2022-11-23T09:51:48;1.95;107.99
67192;HTU21D;54120;53.504;49.426;2022-11-23T09:54:36;1.93;107.98
67192;HTU21D;54120;53.504;49.426;2022-11-23T09:57:04;1.85;107.98
67192;HTU21D;54120;53.504;49.426;2022-11-23T10:00:02;1.88;108.00
67192;HTU21D;54120;53.504;49.426;2022-11-23T10:02:30;1.92;108.00
67192;HTU21D;54120;53.504;49.426;2022-11-23T10:04:59;1.88;108.01
67192;HTU21D;54120;53.504;49.426;2022-11-23T10:12:46;1.83;108.00
67192;HTU21D;54120;53.504;49.426;2022-11-23T10:23:53;1.84;108.02
67192;HTU21D;54120;53.504;49.426;2022-11-23T10:26:25;1.85;108.02
67192;HTU21D;54120;53.504;49.426;2022-11-23T10:28:53;1.87;108.04
67192;HTU21D;54120;53.504;49.426;2022-11-23T10:31:22;1.83;108.02
67192;HTU21D;54120;53.504;49.426;2022-11-23T10:33:59;1.91;108.05
67192;HTU21D;54120;53.504;49.426;2022-11-23T10:38:27;2.00;108.06
67192;HTU21D;54120;53.504;49.426;2022-11-23T10:43:30;1.94;108.04
67192;HTU21D;54120;53.504;49.426;2022-11-23T10:49:22;1.96;108.04
67192;HTU21D;54120;53.504;49.426;2022-11-23T10:51:58;1.94;108.04
67192;HTU21D;54120;53.504;49.426;2022-11-23T10:57:29;1.98;108.05
67192;HTU21D;54120;53.504;49.426;2022-11-23T11:02:57;1.93;108.04
67192;HTU21D;54120;53.504;49.426;2022-11-23T11:05:38;1.90;108.06
67192;HTU21D;54120;53.504;49.426;2022-11-23T11:08:16;1.94;108.05
67192;HTU21D;54120;53.504;49.426;2022-11-23T11:10:46;1.95;108.06
67192;HTU21D;54120;53.504;49.426;2022-11-23T11:15:59;2.00;108.07
67192;HTU21D;54120;53.504;49.426;2022-11-23T11:18:31;2.01;108.08
67192;HTU21D;54120;53.504;49.426;2022-11-23T11:21:06;2.06;108.08
67192;HTU21D;54120;53.504;49.426;2022-11-23T11:23:33;2.05;108.08
67192;HTU21D;54120;53.504;49.426;2022-11-23T11:26:23;2.05;108.07
67192;HTU21D;54120;53.504;49.426;2022-11-23T11:28:52;2.07;108.08
67192;HTU21D;54120;53.504;49.426;2022-11-23T11:33:52;2.07;108.07
67192;HTU21D;54120;53.504;49.426;2022-11-23T11:36:21;2.14;108.11
67192;HTU21D;54120;53.504;49.426;2022-11-23T11:38:50;2.14;108.10
67192;HTU21D;54120;53.504;49.426;2022-11-23T11:41:20;2.13;108.10
67192;HTU21D;54120;53.504;49.426;2022-11-23T11:44:08;2.11;108.10
67192;HTU21D;54120;53.504;49.426;2022-11-23T11:46:42;2.08;108.09
67192;HTU21D;54120;53.504;49.426;2022-11-23T11:49:38;2.09;108.10
67192;HTU21D;54120;53.504;49.426;2022-11-23T11:52:21;2.08;108.10
67192;HTU21D;54120;53.504;49.426;2022-11-23T11:54:57;2.06;108.09
67192;HTU21D;54120;53.504;49.426;2022-11-23T12:00:00;2.07;108.12
67192;HTU21D;54120;53.504;49.426;2022-11-23T12:02:32;2.07;108.11
67192;HTU21D;54120;53.504;49.426;2022-11-23T12:05:24;2.06;108.13
67192;HTU21D;54120;53.504;49.426;2022-11-23T12:10:31;2.09;108.18
67192;HTU21D;54120;53.504;49.426;2022-11-23T12:12:59;2.11;108.20
67192;HTU21D;54120;53.504;49.426;2022-11-23T12:15:33;2.07;108.24
67192;HTU21D;54120;53.504;49.426;2022-11-23T12:26:55;2.07;108.27
67192;HTU21D;54120;53.504;49.426;2022-11-23T12:34:49;1.99;108.30
67192;HTU21D;54120;53.504;49.426;2022-11-23T12:40:28;1.96;108.32
67192;HTU21D;54120;53.504;49.426;2022-11-23T12:43:11;1.93;108.32
67192;HTU21D;54120;53.504;49.426;2022-11-23T12:49:32;1.93;108.34
67192;HTU21D;54120;53.504;49.426;2022-11-23T12:59:22;1.91;108.38
67192;HTU21D;54120;53.504;49.426;2022-11-23T13:02:00;1.90;108.39
67192;HTU21D;54120;53.504;49.426;2022-11-23T13:13:47;1.86;108.40
67192;HTU21D;54120;53.504;49.426;2022-11-23T13:16:47;1.90;108.41
67192;HTU21D;54120;53.504;49.426;2022-11-23T13:22:22;1.87;108.42
67192;HTU21D;54120;53.504;49.426;2022-11-23T13:28:00;1.84;108.44
67192;HTU21D;54120;53.504;49.426;2022-11-23T13:30:35;1.83;108.46
67192;HTU21D;54120;53.504;49.426;2022-11-23T13:40:42;1.87;108.48
67192;HTU21D;54120;53.504;49.426;2022-11-23T13:43:20;1.88;108.48
67192;HTU21D;54120;53.504;49.426;2022-11-23T13:46:26;1.91;108.50
67192;HTU21D;54120;53.504;49.426;2022-11-23T13:48:58;1.93;108.51
67192;HTU21D;54120;53.504;49.426;2022-11-23T13:51:30;1.95;108.50
67192;HTU21D;54120;53.504;49.426;2022-11-23T13:54:02;1.98;108.51
67192;HTU21D;54120;53.504;49.426;2022-11-23T13:56:31;1.96;108.53
67192;HTU21D;54120;53.504;49.426;2022-11-23T14:04:41;1.92;108.51
67192;HTU21D;54120;53.504;49.426;2022-11-23T14:12:54;1.97;108.51
67192;HTU21D;54120;53.504;49.426;2022-11-23T14:15:28;1.97;108.52
67192;HTU21D;54120;53.504;49.426;2022-11-23T14:18:02;1.99;108.52
67192;HTU21D;54120;53.504;49.426;2022-11-23T14:26:43;2.02;108.52
67192;HTU21D;54120;53.504;49.426;2022-11-23T14:32:49;2.03;108.53
67192;HTU21D;54120;53.504;49.426;2022-11-23T14:35:30;2.03;108.54
67192;HTU21D;54120;53.504;49.426;2022-11-23T14:40:51;2.07;108.53
67192;HTU21D;54120;53.504;49.426;2022-11-23T14:43:20;2.07;108.52
67192;HTU21D;54120;53.504;49.426;2022-11-23T14:45:46;2.08;108.53
67192;HTU21D;54120;53.504;49.426;2022-11-23T14:48:32;2.13;108.53
67192;HTU21D;54120;53.504;49.426;2022-11-23T14:53:12;2.12;108.54
67192;HTU21D;54120;53.504;49.426;2022-11-23T14:55:38;2.13;108.56
67192;HTU21D;54120;53.504;49.426;2022-11-23T14:58:05;2.11;108.56
67192;HTU21D;54120;53.504;49.426;2022-11-23T15:00:39;2.13;108.56
67192;HTU21D;54120;53.504;49.426;2022-11-23T15:03:13;2.13;108.58
67192;HTU21D;54120;53.504;49.426;2022-11-23T15:05:45;2.14;108.56
67192;HTU21D;54120;53.504;49.426;2022-11-23T15:08:22;2.13;108.56
67192;HTU21D;54120;53.504;49.426;2022-11-23T15:11:04;2.16;108.56
67192;HTU21D;54120;53.504;49.426;2022-11-23T15:13:44;2.19;108.58
67192;HTU21D;54120;53.504;49.426;2022-11-23T15:16:11;2.15;108.57
67192;HTU21D;54120;53.504;49.426;2022-11-23T15:18:38;2.16;108.58
67192;HTU21D;54120;53.504;49.426;2022-11-23T15:23:44;2.21;108.57
67192;HTU21D;54120;53.504;49.426;2022-11-23T15:28:47;2.22;108.59
67192;HTU21D;54120;53.504;49.426;2022-11-23T15:31:35;2.25;108.59
67192;HTU21D;54120;53.504;49.426;2022-11-23T15:34:13;2.28;108.59
67192;HTU21D;54120;53.504;49.426;2022-11-23T15:36:41;2.30;108.59
67192;HTU21D;54120;53.504;49.426;2022-11-23T15:39:17;2.31;108.59
67192;HTU21D;54120;53.504;49.426;2022-11-23T15:41:44;2.31;108.59
67192;HTU21D;54120;53.504;49.426;2022-11-23T15:44:20;2.29;108.59
67192;HTU21D;54120;53.504;49.426;2022-11-23T15:46:48;2.30;108.62
67192;HTU21D;54120;53.504;49.426;2022-11-23T15:49:15;2.29;108.60
67192;HTU21D;54120;53.504;49.426;2022-11-23T15:51:43;2.30;108.59
67192;HTU21D;54120;53.504;49.426;2022-11-23T15:54:20;2.30;108.58
67192;HTU21D;54120;53.504;49.426;2022-11-23T15:56:48;2.31;108.59
67192;HTU21D;54120;53.504;49.426;2022-11-23T16:02:04;2.32;108.59
67192;HTU21D;54120;53.504;49.426;2022-11-23T16:04:36;2.29;108.59
67192;HTU21D;54120;53.504;49.426;2022-11-23T16:07:20;2.34;108.59
67192;HTU21D;54120;53.504;49.426;2022-11-23T16:12:33;2.35;108.60
67192;HTU21D;54120;53.504;49.426;2022-11-23T16:17:52;2.30;108.60
67192;HTU21D;54120;53.504;49.426;2022-11-23T16:20:20;2.32;108.61
67192;HTU21D;54120;53.504;49.426;2022-11-23T16:22:49;2.31;108.62
67192;HTU21D;54120;53.504;49.426;2022-11-23T16:25:25;2.27;108.60
67192;HTU21D;54120;53.504;49.426;2022-11-23T16:27:59;2.24;108.61
67192;HTU21D;54120;53.504;49.426;2022-11-23T16:30:37;2.25;108.61
67192;HTU21D;54120;53.504;49.426;2022-11-23T16:33:07;2.30;108.62
67192;HTU21D;54120;53.504;49.426;2022-11-23T16:35:37;2.23;108.62
67192;HTU21D;54120;53.504;49.426;2022-11-23T16:38:04;2.16;108.61
67192;HTU21D;54120;53.504;49.426;2022-11-23T16:40:30;2.24;108.62
67192;HTU21D;54120;53.504;49.426;2022-11-23T16:42:57;2.24;108.65
67192;HTU21D;54120;53.504;49.426;2022-11-23T16:45:25;2.21;108.63
67192;HTU21D;54120;53.504;49.426;2022-11-23T16:47:53;2.20;108.62
67192;HTU21D;54120;53.504;49.426;2022-11-23T16:50:21;2.38;108.68
67192;HTU21D;54120;53.504;49.426;2022-11-23T16:52:47;2.32;108.66
67192;HTU21D;54120;53.504;49.426;2022-11-23T16:55:14;2.25;108.65
67192;HTU21D;54120;53.504;49.426;2022-11-23T16:57:41;2.28;108.67
67192;HTU21D;54120;53.504;49.426;2022-11-23T17:00:19;2.38;108.69
67192;HTU21D;54120;53.504;49.426;2022-11-23T17:02:47;2.32;108.66
67192;HTU21D;54120;53.504;49.426;2022-11-23T17:05:15;2.27;108.68
67192;HTU21D;54120;53.504;49.426;2022-11-23T17:07:41;2.27;108.67
67192;HTU21D;54120;53.504;49.426;2022-11-23T17:10:08;2.28;108.69
67192;HTU21D;54120;53.504;49.426;2022-11-23T17:12:36;2.32;108.69
67192;HTU21D;54120;53.504;49.426;2022-11-23T17:15:03;2.36;108.68
67192;HTU21D;54120;53.504;49.426;2022-11-23T17:17:30;2.34;108.69
67192;HTU21D;54120;53.504;49.426;2022-11-23T17:19:56;2.37;108.70
67192;HTU21D;54120;53.504;49.426;2022-11-23T17:22:22;2.37;108.70
67192;HTU21D;54120;53.504;49.426;2022-11-23T17:24:49;2.46;108.73
67192;HTU21D;54120;53.504;49.426;2022-11-23T17:27:22;2.34;108.69
67192;HTU21D;54120;53.504;49.426;2022-11-23T17:29:59;2.31;108.69